Time;durP1;ratioP1;P1;durP2;ratioP2;P2;SDS_P1;SDS_P2;PMS_P1;PMS_P2;Temp;Humidity;BMP_temperature;BMP_pressure;BME280_temperature;BME280_humidity;BME280_pressure;Samples;Min_cycle;Max_cycle;Signal;HPM_P1;HPM_P2
2022/07/03 00:01:57;;;;;;;7.10;3.90;;;21.70;84.60;;;;;;4953072;28;98424;-70
2022/07/03 00:04:24;;;;;;;4.22;3.80;;;21.70;84.90;;;;;;4938276;28;98633;-70
2022/07/03 00:06:54;;;;;;;5.72;4.50;;;21.60;85.10;;;;;;4956005;28;99231;-70
2022/07/03 00:09:22;;;;;;;3.78;3.17;;;21.60;85.20;;;;;;4956388;28;98951;-69
2022/07/03 00:11:49;;;;;;;6.40;4.28;;;21.60;85.50;;;;;;4956229;28;98624;-70
2022/07/03 00:14:17;;;;;;;4.57;3.92;;;21.50;85.70;;;;;;4956668;28;97842;-70
2022/07/03 00:16:44;;;;;;;4.80;3.70;;;21.50;86.00;;;;;;4938422;28;99521;-70
2022/07/03 00:19:11;;;;;;;3.92;3.30;;;21.40;86.10;;;;;;4938740;28;101246;-70
2022/07/03 00:21:45;;;;;;;3.95;3.65;;;21.40;86.40;;;;;;4938744;28;99284;-69
2022/07/03 00:24:52;;;;;;;4.60;4.20;;;21.40;86.80;;;;;;4938557;28;98604;-70
2022/07/03 00:27:23;;;;;;;4.40;4.03;;;21.40;87.10;;;;;;4956032;28;99372;-70
2022/07/03 00:29:55;;;;;;;5.03;4.28;;;21.30;87.40;;;;;;4938406;28;99174;-70
2022/07/03 00:32:23;;;;;;;4.25;3.72;;;21.30;87.60;;;;;;4939183;28;98551;-70
2022/07/03 00:34:52;;;;;;;5.57;5.05;;;21.30;87.90;;;;;;4956035;28;98500;-70
2022/07/03 00:37:19;;;;;;;5.55;3.65;;;21.20;88.10;;;;;;4955727;28;99074;-70
2022/07/03 00:39:48;;;;;;;4.72;4.32;;;21.20;88.50;;;;;;4938139;28;101511;-70
2022/07/03 00:42:16;;;;;;;4.05;3.70;;;21.10;88.80;;;;;;4956010;28;98513;-70
2022/07/03 00:44:49;;;;;;;4.43;4.13;;;21.10;89.10;;;;;;4922099;28;98562;-70
2022/07/03 00:47:18;;;;;;;3.93;3.20;;;21.10;89.40;;;;;;4955564;28;100094;-70
2022/07/03 00:49:49;;;;;;;3.00;2.80;;;21.10;89.80;;;;;;4955582;28;99860;-70
2022/07/03 00:52:17;;;;;;;4.32;3.92;;;21.10;90.10;;;;;;4938564;28;99134;-70
2022/07/03 00:54:57;;;;;;;4.03;3.33;;;21.00;90.20;;;;;;4938094;28;98625;-70
2022/07/03 00:57:29;;;;;;;4.40;3.63;;;21.00;90.20;;;;;;4937583;28;103218;-70
2022/07/03 00:59:57;;;;;;;5.43;3.28;;;20.90;90.40;;;;;;4937899;28;98774;-70
2022/07/03 01:02:30;;;;;;;3.00;2.80;;;20.80;90.50;;;;;;4938130;28;98548;-70
2022/07/03 01:05:12;;;;;;;5.93;5.43;;;20.80;90.60;;;;;;4955996;28;97814;-70
2022/07/03 01:07:45;;;;;;;5.85;3.40;;;20.80;90.70;;;;;;4955342;28;99493;-70
2022/07/03 01:10:30;;;;;;;4.82;3.58;;;20.70;91.00;;;;;;4937376;28;105150;-70
2022/07/03 01:13:11;;;;;;;5.78;4.13;;;20.70;91.20;;;;;;4955312;28;99244;-70
2022/07/03 01:15:57;;;;;;;4.57;4.10;;;20.60;91.30;;;;;;4937348;28;98583;-69
2022/07/03 01:18:50;;;;;;;3.22;2.90;;;20.60;91.40;;;;;;4937541;28;101835;-70
2022/07/03 01:21:52;;;;;;;4.05;3.63;;;20.50;91.60;;;;;;4937312;28;101749;-70
2022/07/03 01:24:56;;;;;;;4.35;3.22;;;20.40;91.80;;;;;;4955565;28;98402;-70
2022/07/03 01:27:33;;;;;;;4.97;3.80;;;20.40;92.00;;;;;;4937762;28;98561;-70
2022/07/03 01:30:06;;;;;;;7.45;4.03;;;20.30;92.20;;;;;;4954904;28;99296;-70
2022/07/03 01:32:40;;;;;;;6.57;4.60;;;20.30;92.50;;;;;;4955490;28;99047;-70
2022/07/03 01:35:10;;;;;;;6.93;3.72;;;20.20;92.60;;;;;;4955286;28;98443;-70
2022/07/03 01:37:39;;;;;;;3.88;3.58;;;20.20;92.70;;;;;;4937597;28;98593;-70
2022/07/03 01:40:08;;;;;;;4.78;4.45;;;20.20;92.70;;;;;;4954216;28;99966;-69
2022/07/03 01:42:41;;;;;;;3.65;3.35;;;20.20;92.80;;;;;;4937457;28;99983;-70
2022/07/03 01:45:13;;;;;;;4.22;3.88;;;20.30;92.80;;;;;;4955211;28;98443;-70
2022/07/03 01:47:42;;;;;;;4.60;3.92;;;20.30;92.80;;;;;;4921464;28;98679;-70
2022/07/03 01:50:14;;;;;;;6.68;3.90;;;20.30;92.80;;;;;;4936759;28;99268;-70
2022/07/03 01:52:42;;;;;;;4.70;4.40;;;20.30;92.90;;;;;;4936996;28;101592;-70
2022/07/03 01:55:15;;;;;;;5.00;4.57;;;20.20;93.00;;;;;;4937273;28;98646;-70
2022/07/03 01:57:48;;;;;;;5.05;4.57;;;20.20;93.00;;;;;;4954979;28;97677;-70
2022/07/03 02:00:19;;;;;;;6.68;4.47;;;20.20;93.10;;;;;;4937107;28;99383;-70
2022/07/03 02:02:57;;;;;;;4.38;3.97;;;20.10;93.10;;;;;;4936849;28;101516;-69
2022/07/03 02:05:24;;;;;;;5.55;5.05;;;20.10;93.20;;;;;;4920911;28;99293;-70
2022/07/03 02:08:22;;;;;;;5.43;5.03;;;20.00;93.30;;;;;;4937264;28;98585;-70
2022/07/03 02:11:13;;;;;;;7.43;4.32;;;20.00;93.40;;;;;;4920595;28;101861;-70
2022/07/03 02:13:52;;;;;;;6.43;5.90;;;19.90;93.40;;;;;;4954601;28;99132;-70
2022/07/03 02:16:23;;;;;;;4.90;4.60;;;19.90;93.50;;;;;;4936954;28;98532;-70
2022/07/03 02:19:11;;;;;;;5.10;4.63;;;19.80;93.60;;;;;;4954853;28;98555;-70
2022/07/03 02:21:54;;;;;;;5.55;5.05;;;19.80;93.60;;;;;;4920465;28;105342;-70
2022/07/03 02:24:25;;;;;;;5.82;5.32;;;19.70;93.70;;;;;;4937256;28;99123;-70
2022/07/03 02:27:09;;;;;;;5.22;4.72;;;19.60;93.90;;;;;;4919929;28;98502;-70
2022/07/03 02:29:42;;;;;;;6.25;5.75;;;19.60;93.80;;;;;;4954549;28;98535;-69
2022/07/03 02:32:15;;;;;;;5.25;4.75;;;19.50;93.90;;;;;;4920021;28;101345;-70
2022/07/03 02:34:51;;;;;;;6.25;5.85;;;19.50;94.00;;;;;;4936842;28;99522;-70
2022/07/03 02:37:20;;;;;;;5.13;4.72;;;19.50;94.10;;;;;;4954474;28;98458;-69
2022/07/03 02:39:50;;;;;;;5.43;5.00;;;19.40;94.20;;;;;;4937016;28;98577;-70
2022/07/03 02:42:30;;;;;;;6.20;5.80;;;19.40;94.20;;;;;;4953350;28;99249;-69
2022/07/03 02:45:01;;;;;;;6.25;5.68;;;19.30;94.20;;;;;;4936175;28;101758;-69
2022/07/03 02:47:43;;;;;;;7.63;6.00;;;19.20;94.40;;;;;;4954330;28;98412;-70
2022/07/03 02:50:20;;;;;;;6.03;5.53;;;19.20;94.40;;;;;;4937270;28;97811;-70
2022/07/03 02:53:05;;;;;;;6.00;5.50;;;19.10;94.50;;;;;;4936092;28;101753;-70
2022/07/03 02:55:37;;;;;;;6.20;5.60;;;19.10;94.50;;;;;;4954194;28;99123;-69
2022/07/03 02:58:31;;;;;;;7.20;6.50;;;19.00;94.60;;;;;;4932353;28;99296;-70
2022/07/03 03:01:01;;;;;;;7.32;6.53;;;19.00;94.60;;;;;;4933044;28;98770;-70
2022/07/03 03:03:32;;;;;;;6.32;5.75;;;18.90;94.80;;;;;;4932939;28;101835;-69
2022/07/03 03:06:14;;;;;;;8.52;7.72;;;18.80;94.90;;;;;;4933931;28;99300;-69
2022/07/03 03:08:48;;;;;;;7.55;6.82;;;18.80;95.10;;;;;;4933122;28;98531;-69
2022/07/03 03:11:41;;;;;;;8.90;8.02;;;18.70;95.40;;;;;;4934447;28;98647;-70
2022/07/03 03:14:20;;;;;;;6.20;5.63;;;18.70;95.40;;;;;;4932326;28;102000;-69
2022/07/03 03:16:52;;;;;;;6.85;6.38;;;18.70;95.30;;;;;;4932954;28;100063;-69
2022/07/03 03:19:24;;;;;;;6.47;5.97;;;18.60;95.20;;;;;;4916713;28;98575;-69
2022/07/03 03:22:09;;;;;;;7.88;6.10;;;18.70;95.20;;;;;;4934298;28;99166;-70
2022/07/03 03:24:36;;;;;;;6.03;5.57;;;18.60;95.30;;;;;;4931913;28;105778;-69
2022/07/03 03:27:04;;;;;;;7.40;6.63;;;18.60;95.40;;;;;;4933775;28;99685;-70
2022/07/03 03:29:31;;;;;;;7.75;7.05;;;18.50;95.30;;;;;;4932862;28;98704;-69
2022/07/03 03:31:58;;;;;;;7.28;6.78;;;18.60;95.40;;;;;;4933030;28;98583;-70
2022/07/03 03:34:31;;;;;;;6.43;5.85;;;18.60;95.40;;;;;;4933478;28;99052;-69
2022/07/03 03:36:59;;;;;;;7.45;6.75;;;18.60;95.50;;;;;;4932496;28;98951;-69
2022/07/03 03:39:27;;;;;;;6.78;6.18;;;18.60;95.50;;;;;;4916342;28;98626;-70
2022/07/03 03:41:54;;;;;;;7.60;7.00;;;18.60;95.60;;;;;;4934354;28;97741;-69
2022/07/03 03:44:21;;;;;;;7.72;7.03;;;18.60;95.50;;;;;;4933281;28;99344;-70
2022/07/03 03:46:50;;;;;;;7.28;6.65;;;18.60;95.50;;;;;;4933497;28;98938;-70
2022/07/03 03:49:17;;;;;;;7.10;6.40;;;18.60;95.50;;;;;;4931883;28;99270;-69
2022/07/03 03:51:44;;;;;;;8.50;6.30;;;18.70;95.50;;;;;;4916460;28;98553;-69
2022/07/03 03:54:11;;;;;;;8.23;7.18;;;18.70;95.50;;;;;;4933317;28;99554;-69
2022/07/03 03:56:38;;;;;;;7.80;7.10;;;18.70;95.50;;;;;;4933465;28;98921;-69
2022/07/03 03:59:07;;;;;;;6.80;6.20;;;19.10;95.70;;;;;;4951548;28;98536;-69
2022/07/03 04:01:34;;;;;;;6.93;6.22;;;19.70;95.10;;;;;;4935822;28;98540;-69
2022/07/03 04:04:01;;;;;;;6.93;6.30;;;20.40;94.10;;;;;;4935497;28;99389;-70
2022/07/03 04:06:28;;;;;;;6.75;6.07;;;21.10;92.90;;;;;;4934532;28;112488;-70
2022/07/03 04:08:55;;;;;;;5.60;5.20;;;21.70;91.80;;;;;;4953106;28;98641;-70
2022/07/03 04:11:22;;;;;;;7.18;6.68;;;22.00;90.80;;;;;;4952909;28;98584;-70
2022/07/03 04:13:49;;;;;;;6.20;5.65;;;22.10;90.30;;;;;;4918597;28;105483;-70
2022/07/03 04:16:16;;;;;;;5.75;4.93;;;22.00;90.10;;;;;;4934973;28;102424;-70
2022/07/03 04:18:43;;;;;;;7.03;4.72;;;21.80;89.70;;;;;;4935622;28;98587;-70
2022/07/03 04:21:10;;;;;;;6.50;5.93;;;21.60;89.80;;;;;;4935851;28;98714;-70
2022/07/03 04:23:37;;;;;;;6.60;6.10;;;21.40;90.00;;;;;;4934913;28;99264;-70
2022/07/03 04:26:05;;;;;;;6.25;5.65;;;21.20;90.10;;;;;;4952577;28;99043;-70
2022/07/03 04:28:32;;;;;;;6.20;5.80;;;21.00;90.30;;;;;;4935228;28;99103;-69
2022/07/03 04:31:00;;;;;;;7.20;5.53;;;20.90;90.40;;;;;;4919386;28;97843;-70
2022/07/03 04:33:27;;;;;;;5.95;5.35;;;20.80;90.60;;;;;;4952402;28;99502;-70
2022/07/03 04:35:54;;;;;;;6.47;5.88;;;20.60;90.70;;;;;;4952640;28;99125;-70
2022/07/03 04:38:21;;;;;;;9.90;6.28;;;20.50;90.90;;;;;;4952195;28;99159;-69
2022/07/03 04:40:48;;;;;;;6.30;5.75;;;20.50;91.00;;;;;;4952760;28;98606;-70
2022/07/03 04:43:18;;;;;;;5.90;5.40;;;20.40;91.10;;;;;;4952073;28;99399;-69
2022/07/03 04:45:45;;;;;;;7.95;6.43;;;20.40;91.20;;;;;;4952211;28;100128;-69
2022/07/03 04:48:12;;;;;;;6.28;4.88;;;20.30;91.30;;;;;;4935084;28;98605;-69
2022/07/03 04:50:39;;;;;;;7.30;6.80;;;20.30;91.50;;;;;;4936254;28;98972;-69
2022/07/03 04:53:05;;;;;;;5.88;5.22;;;20.20;91.60;;;;;;4938195;28;99404;-70
2022/07/03 04:55:32;;;;;;;6.85;5.88;;;20.20;91.60;;;;;;4955772;28;99037;-69
2022/07/03 04:57:59;;;;;;;7.63;5.38;;;20.10;91.60;;;;;;4938256;28;98549;-69
2022/07/03 05:00:26;;;;;;;5.75;5.25;;;20.10;91.70;;;;;;4955664;28;98965;-69
2022/07/03 05:02:53;;;;;;;6.43;6.03;;;20.10;91.70;;;;;;4955133;28;99945;-70
2022/07/03 05:05:21;;;;;;;6.38;5.97;;;20.10;91.50;;;;;;4955264;28;99639;-69
2022/07/03 05:07:48;;;;;;;7.72;5.75;;;20.00;91.30;;;;;;4922395;28;98435;-69
2022/07/03 05:10:15;;;;;;;8.05;7.00;;;20.00;91.10;;;;;;4922407;28;98638;-70
2022/07/03 05:12:41;;;;;;;6.80;6.35;;;20.00;91.00;;;;;;4938000;28;99253;-70
2022/07/03 05:15:09;;;;;;;8.25;6.43;;;20.00;91.00;;;;;;4937702;28;101506;-69
2022/07/03 05:17:36;;;;;;;5.78;5.05;;;20.00;91.00;;;;;;4955393;28;98486;-70
2022/07/03 05:20:25;;;;;;;7.15;6.65;;;19.90;91.10;;;;;;4938566;28;97883;-69
2022/07/03 05:22:53;;;;;;;6.20;5.65;;;19.90;91.30;;;;;;4955422;28;99295;-70
2022/07/03 05:25:20;;;;;;;7.13;6.50;;;19.80;91.40;;;;;;4937564;28;99030;-70
2022/07/03 05:27:50;;;;;;;6.50;6.10;;;19.80;91.50;;;;;;4954363;28;102089;-69
2022/07/03 05:30:17;;;;;;;6.93;6.30;;;19.80;91.50;;;;;;4955468;28;98540;-70
2022/07/03 05:32:44;;;;;;;7.25;6.60;;;19.90;91.60;;;;;;4954824;28;99375;-70
2022/07/03 05:35:12;;;;;;;6.70;5.10;;;19.90;91.60;;;;;;4954776;28;98986;-70
2022/07/03 05:37:39;;;;;;;5.70;5.30;;;20.00;91.60;;;;;;4921241;28;99631;-70
2022/07/03 05:40:06;;;;;;;6.93;6.38;;;20.10;91.60;;;;;;4938044;28;98598;-69
2022/07/03 05:42:34;;;;;;;5.82;5.20;;;20.20;91.50;;;;;;4954560;28;99284;-69
2022/07/03 05:45:02;;;;;;;7.93;6.28;;;20.40;91.50;;;;;;4937630;28;100091;-70
2022/07/03 05:47:28;;;;;;;5.63;5.18;;;20.50;91.30;;;;;;4937297;28;98483;-70
2022/07/03 05:49:55;;;;;;;5.78;5.05;;;20.80;91.00;;;;;;4937739;28;98553;-70
2022/07/03 05:52:22;;;;;;;6.78;6.15;;;21.00;90.60;;;;;;4937292;28;100124;-70
2022/07/03 05:54:49;;;;;;;6.13;5.72;;;21.30;90.40;;;;;;4937237;28;99807;-70
2022/07/03 05:57:16;;;;;;;6.10;4.80;;;21.40;90.00;;;;;;4937324;28;99016;-70
2022/07/03 05:59:43;;;;;;;4.78;4.38;;;21.60;89.70;;;;;;4955046;28;98420;-70
2022/07/03 06:02:10;;;;;;;6.05;5.65;;;21.70;89.10;;;;;;4954608;28;101827;-70
2022/07/03 06:04:37;;;;;;;4.93;4.43;;;21.90;88.50;;;;;;4937073;28;99467;-70
2022/07/03 06:07:04;;;;;;;4.68;4.32;;;22.10;88.00;;;;;;4954931;28;98569;-70
2022/07/03 06:09:31;;;;;;;4.82;3.60;;;22.30;86.70;;;;;;4955061;28;97851;-69
2022/07/03 06:11:58;;;;;;;5.15;4.75;;;22.60;86.30;;;;;;4954207;28;106651;-69
2022/07/03 06:14:25;;;;;;;5.43;5.03;;;22.90;85.50;;;;;;4937168;28;99022;-70
2022/07/03 06:16:52;;;;;;;5.68;4.80;;;23.10;85.60;;;;;;4954203;28;99215;-70
2022/07/03 06:19:19;;;;;;;5.57;4.50;;;23.10;85.50;;;;;;4954491;28;98526;-70
2022/07/03 06:21:46;;;;;;;4.93;3.53;;;23.10;85.70;;;;;;4954225;28;99238;-69
2022/07/03 06:24:13;;;;;;;5.57;4.10;;;23.20;85.90;;;;;;4920664;28;101594;-70
2022/07/03 06:26:40;;;;;;;5.53;4.32;;;23.20;85.80;;;;;;4954537;28;98534;-69
2022/07/03 06:29:07;;;;;;;4.80;4.22;;;23.40;85.50;;;;;;4936840;28;98563;-70
2022/07/03 06:31:34;;;;;;;3.78;2.90;;;23.60;85.20;;;;;;4936160;28;100745;-70
2022/07/03 06:34:01;;;;;;;4.75;4.35;;;23.80;83.90;;;;;;4937110;28;99066;-70
2022/07/03 06:36:28;;;;;;;3.83;3.38;;;24.00;83.10;;;;;;4937244;28;98527;-69
2022/07/03 06:38:55;;;;;;;2.83;2.63;;;24.20;82.10;;;;;;4904954;28;98603;-70
2022/07/03 06:41:22;;;;;;;3.22;2.38;;;24.20;81.30;;;;;;4935904;28;103445;-70
2022/07/03 06:43:48;;;;;;;4.57;4.18;;;24.20;81.00;;;;;;4953780;28;99806;-70
2022/07/03 06:46:15;;;;;;;4.53;3.35;;;24.20;81.00;;;;;;4954047;28;98503;-70
2022/07/03 06:48:42;;;;;;;3.22;2.78;;;24.20;81.30;;;;;;4920214;28;98566;-70
2022/07/03 06:51:09;;;;;;;2.80;2.17;;;24.40;81.10;;;;;;4920013;28;101779;-70
2022/07/03 06:53:42;;;;;;;3.30;2.63;;;24.50;80.00;;;;;;4937306;28;98839;-70
2022/07/03 06:56:09;;;;;;;3.55;2.70;;;24.70;79.10;;;;;;4920437;28;98696;-69
2022/07/03 06:58:36;;;;;;;3.45;2.50;;;24.90;78.30;;;;;;4936271;28;97983;-69
2022/07/03 07:01:02;;;;;;;2.25;1.70;;;25.00;77.30;;;;;;4953701;28;99465;-70
2022/07/03 07:03:30;;;;;;;3.63;3.08;;;25.00;76.80;;;;;;4953708;28;99052;-70
2022/07/03 07:05:57;;;;;;;2.95;2.67;;;25.00;76.20;;;;;;4953390;28;99240;-70
2022/07/03 07:08:24;;;;;;;3.35;2.45;;;25.20;76.20;;;;;;4936530;28;98530;-70
2022/07/03 07:10:51;;;;;;;2.45;1.52;;;25.30;75.70;;;;;;4953308;28;99267;-70
2022/07/03 07:13:18;;;;;;;4.75;2.22;;;25.60;75.40;;;;;;4952660;28;98928;-70
2022/07/03 07:15:45;;;;;;;2.92;2.38;;;25.90;73.10;;;;;;4953555;28;98472;-70
2022/07/03 07:18:12;;;;;;;2.72;1.80;;;26.20;71.30;;;;;;4919887;28;98634;-70
2022/07/03 07:20:40;;;;;;;3.50;1.55;;;26.50;70.20;;;;;;4953156;28;99340;-70
2022/07/03 07:23:07;;;;;;;2.17;1.20;;;26.70;69.10;;;;;;4936010;28;101733;-70
2022/07/03 07:25:34;;;;;;;2.35;2.13;;;26.90;67.50;;;;;;4953835;28;98527;-70
2022/07/03 07:28:04;;;;;;;4.22;1.30;;;27.10;67.30;;;;;;4935567;28;98527;-70
2022/07/03 07:30:30;;;;;;;2.70;1.70;;;27.30;66.90;;;;;;4952684;28;105490;-70
2022/07/03 07:32:57;;;;;;;1.45;1.20;;;27.40;66.30;;;;;;4935827;28;99850;-70
2022/07/03 07:35:24;;;;;;;2.88;2.28;;;27.50;66.20;;;;;;4936510;28;98685;-70
2022/07/03 07:37:51;;;;;;;2.83;2.15;;;27.60;65.50;;;;;;4953412;28;98544;-70
2022/07/03 07:40:18;;;;;;;4.10;1.85;;;27.60;65.70;;;;;;4935518;28;101746;-70
2022/07/03 07:42:45;;;;;;;2.55;1.52;;;27.60;65.80;;;;;;4953022;28;99095;-70
2022/07/03 07:45:12;;;;;;;5.85;1.30;;;27.60;65.80;;;;;;4920046;28;98856;-70
2022/07/03 07:47:39;;;;;;;2.72;2.40;;;27.50;65.10;;;;;;4936021;28;97880;-70
2022/07/03 07:50:07;;;;;;;2.30;1.88;;;27.50;65.70;;;;;;4935066;28;100548;-70
2022/07/03 07:52:34;;;;;;;5.22;1.40;;;27.70;65.90;;;;;;4935454;28;98902;-70
2022/07/03 07:55:01;;;;;;;1.65;1.23;;;27.70;65.80;;;;;;4918897;28;99270;-70
2022/07/03 07:57:39;;;;;;;2.67;2.42;;;27.80;65.70;;;;;;4952502;28;98555;-70
2022/07/03 08:00:12;;;;;;;4.18;1.90;;;27.80;65.50;;;;;;4934964;28;104268;-70
2022/07/03 08:05:36;;;;;;;3.63;2.65;;;27.50;66.30;;;;;;4954587;28;98582;-70
2022/07/03 08:08:08;;;;;;;3.85;2.08;;;27.50;66.90;;;;;;4937279;28;98568;-70
2022/07/03 08:10:49;;;;;;;3.13;1.80;;;27.50;66.20;;;;;;4935444;28;99703;-70
2022/07/03 08:13:17;;;;;;;3.58;2.35;;;27.80;65.60;;;;;;4953446;28;99084;-70
2022/07/03 08:15:46;;;;;;;2.22;2.00;;;28.30;65.10;;;;;;4935339;28;98602;-70
2022/07/03 08:18:13;;;;;;;2.80;1.52;;;28.90;64.00;;;;;;4919175;28;98604;-71
2022/07/03 08:20:40;;;;;;;2.13;1.95;;;29.30;62.70;;;;;;4952331;28;100105;-70
2022/07/03 08:23:07;;;;;;;4.07;2.40;;;29.40;61.70;;;;;;4918275;28;112565;-70
2022/07/03 08:25:34;;;;;;;4.78;1.92;;;29.40;61.70;;;;;;4936794;28;99098;-70
2022/07/03 08:28:01;;;;;;;3.30;1.65;;;29.70;61.70;;;;;;4956303;28;98563;-71
2022/07/03 08:30:29;;;;;;;1.73;1.55;;;30.40;60.80;;;;;;4955941;28;99424;-71
2022/07/03 08:32:57;;;;;;;2.08;1.88;;;31.30;59.20;;;;;;4955864;28;99134;-70
2022/07/03 08:35:25;;;;;;;2.83;2.40;;;32.20;56.70;;;;;;4938998;28;98638;-71
2022/07/03 08:37:52;;;;;;;2.20;2.00;;;33.20;55.00;;;;;;4956465;28;97792;-71
2022/07/03 08:40:20;;;;;;;2.22;1.70;;;34.20;53.50;;;;;;4938262;28;101826;-71
2022/07/03 08:42:50;;;;;;;2.45;1.67;;;35.10;50.50;;;;;;4955716;28;98894;-71
2022/07/03 08:45:18;;;;;;;3.05;2.85;;;35.70;48.80;;;;;;4955552;28;99486;-71
2022/07/03 08:47:47;;;;;;;3.03;1.50;;;36.00;47.80;;;;;;4956005;28;98547;-71
2022/07/03 08:50:17;;;;;;;2.20;2.00;;;36.40;47.30;;;;;;4938145;28;99329;-71
2022/07/03 08:52:46;;;;;;;4.32;2.35;;;36.50;45.90;;;;;;4921887;28;101690;-71
2022/07/03 08:55:14;;;;;;;5.07;2.45;;;36.40;46.00;;;;;;4938371;28;98589;-71
2022/07/03 08:57:42;;;;;;;4.10;2.17;;;36.10;45.50;;;;;;4955189;28;98545;-71
2022/07/03 09:00:14;;;;;;;1.83;1.60;;;35.90;45.30;;;;;;4955362;28;99205;-71
2022/07/03 09:02:44;;;;;;;4.45;2.65;;;35.90;45.70;;;;;;4938408;28;101904;-71
2022/07/03 09:05:12;;;;;;;2.15;1.55;;;35.60;46.10;;;;;;4955715;28;98533;-71
2022/07/03 09:07:42;;;;;;;3.20;2.45;;;35.30;46.70;;;;;;4955789;28;98569;-71
2022/07/03 09:10:11;;;;;;;2.38;1.90;;;35.00;46.80;;;;;;4936867;28;102504;-71
2022/07/03 09:12:38;;;;;;;2.13;1.60;;;34.70;47.10;;;;;;4937954;28;99638;-71
2022/07/03 09:15:08;;;;;;;3.03;2.22;;;34.30;47.30;;;;;;4955469;28;98555;-71
2022/07/03 09:17:35;;;;;;;3.90;1.50;;;33.90;48.00;;;;;;4955803;28;98580;-70
2022/07/03 09:20:05;;;;;;;4.25;2.35;;;33.60;48.40;;;;;;4937616;28;99425;-71
2022/07/03 09:22:34;;;;;;;3.15;2.80;;;33.30;49.30;;;;;;4955727;28;99103;-70
2022/07/03 09:25:07;;;;;;;1.58;1.48;;;33.10;49.40;;;;;;4954971;28;98992;-70
2022/07/03 09:27:39;;;;;;;4.15;1.70;;;32.90;49.30;;;;;;4955930;28;97799;-71
2022/07/03 09:30:09;;;;;;;2.92;2.25;;;32.50;49.40;;;;;;4954828;28;99156;-70
2022/07/03 09:32:47;;;;;;;2.92;2.65;;;32.30;50.00;;;;;;4955056;28;99045;-70
2022/07/03 09:35:21;;;;;;;1.95;1.48;;;32.00;51.30;;;;;;4936810;28;99286;-71
2022/07/03 09:37:58;;;;;;;2.78;1.45;;;31.90;51.20;;;;;;4955099;28;98426;-70
2022/07/03 09:40:27;;;;;;;2.45;2.03;;;31.90;51.90;;;;;;4937069;28;100455;-70
2022/07/03 09:43:07;;;;;;;2.65;2.38;;;31.80;51.20;;;;;;4937389;28;99222;-70
2022/07/03 09:45:56;;;;;;;3.40;1.77;;;31.70;50.80;;;;;;4955336;28;98984;-70
2022/07/03 09:48:37;;;;;;;3.72;2.03;;;31.50;51.10;;;;;;4937803;28;98621;-70
2022/07/03 09:51:23;;;;;;;2.65;1.83;;;31.30;51.10;;;;;;4954770;28;99389;-70
2022/07/03 09:53:58;;;;;;;3.22;1.85;;;31.10;52.10;;;;;;4937815;28;99217;-70
2022/07/03 09:56:36;;;;;;;3.05;2.10;;;30.90;52.80;;;;;;4954955;28;98522;-70
2022/07/03 09:59:11;;;;;;;2.35;1.80;;;30.80;53.80;;;;;;4933739;28;98530;-70
2022/07/03 10:01:40;;;;;;;4.80;2.45;;;30.60;54.40;;;;;;4933148;28;102682;-71
2022/07/03 10:04:21;;;;;;;3.58;2.63;;;30.50;54.20;;;;;;4934759;28;99679;-70
2022/07/03 10:06:51;;;;;;;2.95;2.45;;;30.50;54.40;;;;;;4935252;28;98569;-70
2022/07/03 10:09:22;;;;;;;2.60;2.20;;;30.30;54.10;;;;;;4917753;28;98648;-70
2022/07/03 10:11:50;;;;;;;2.88;2.35;;;30.30;54.00;;;;;;4935035;28;99256;-70
2022/07/03 10:14:23;;;;;;;3.67;1.88;;;30.20;53.90;;;;;;4932817;28;108933;-70
2022/07/03 10:16:51;;;;;;;2.70;2.58;;;30.20;54.30;;;;;;4935447;28;98538;-70
2022/07/03 10:19:21;;;;;;;4.55;1.83;;;30.10;53.70;;;;;;4918176;28;97837;-71
2022/07/03 10:21:54;;;;;;;2.30;2.10;;;30.10;53.00;;;;;;4934602;28;99594;-71
2022/07/03 10:24:23;;;;;;;3.85;1.90;;;30.10;52.40;;;;;;4934869;28;99330;-70
2022/07/03 10:26:51;;;;;;;3.33;1.73;;;30.20;52.80;;;;;;4933337;28;99403;-71
2022/07/03 10:29:21;;;;;;;3.47;1.92;;;30.30;52.80;;;;;;4933494;28;98571;-70
2022/07/03 10:31:53;;;;;;;2.85;1.92;;;30.40;52.50;;;;;;4934762;28;99432;-70
2022/07/03 10:34:23;;;;;;;3.80;1.98;;;30.50;52.20;;;;;;4933199;28;98912;-70
2022/07/03 10:36:59;;;;;;;1.95;1.08;;;30.60;52.40;;;;;;4934946;28;99153;-70
2022/07/03 10:39:33;;;;;;;4.03;1.40;;;30.70;51.90;;;;;;4934887;28;98971;-70
2022/07/03 10:44:51;;;;;;;3.08;1.75;;;30.50;51.70;;;;;;4933301;28;101588;-70
2022/07/03 10:47:49;;;;;;;2.47;1.40;;;30.70;51.30;;;;;;4932734;28;99175;-70
2022/07/03 10:50:21;;;;;;;3.80;1.67;;;31.00;51.10;;;;;;4934116;28;98517;-70
2022/07/03 10:52:49;;;;;;;2.20;1.90;;;31.30;50.80;;;;;;4932562;28;102668;-71
2022/07/03 10:55:17;;;;;;;3.28;2.95;;;31.50;50.50;;;;;;4934364;28;99891;-70
2022/07/03 10:58:07;;;;;;;3.53;2.03;;;31.60;49.90;;;;;;4932516;28;98556;-70
2022/07/03 11:01:00;;;;;;;2.28;1.83;;;31.80;48.30;;;;;;4934497;28;98607;-70
2022/07/03 11:04:13;;;;;;;2.63;0.95;;;31.80;48.60;;;;;;4930277;28;99421;-71
2022/07/03 11:06:43;;;;;;;1.80;1.52;;;31.90;47.70;;;;;;4932338;28;99108;-70
2022/07/03 11:09:12;;;;;;;3.58;2.25;;;31.70;47.70;;;;;;4933821;28;98507;-71
2022/07/03 11:11:56;;;;;;;3.00;1.13;;;31.70;47.70;;;;;;4934782;28;97740;-71
2022/07/03 11:14:29;;;;;;;3.88;2.17;;;31.60;47.90;;;;;;4932984;28;99196;-71
2022/07/03 11:17:16;;;;;;;1.65;1.00;;;31.40;46.60;;;;;;4932514;28;100135;-70
2022/07/03 11:19:44;;;;;;;2.17;1.52;;;31.30;47.10;;;;;;4932728;28;99831;-70
2022/07/03 11:22:18;;;;;;;2.00;1.88;;;31.10;47.00;;;;;;4932247;28;105333;-70
2022/07/03 11:24:49;;;;;;;2.22;2.03;;;31.20;47.90;;;;;;4933889;28;99587;-70
2022/07/03 11:27:23;;;;;;;2.80;2.03;;;31.10;47.90;;;;;;4933767;28;98962;-70
2022/07/03 11:29:53;;;;;;;1.23;0.90;;;30.90;47.50;;;;;;4934320;28;98575;-70
2022/07/03 11:32:48;;;;;;;1.38;1.27;;;30.70;47.80;;;;;;4932681;28;98525;-70
2022/07/03 11:35:51;;;;;;;2.00;1.83;;;30.70;47.60;;;;;;4925603;28;99272;-70
2022/07/03 11:38:23;;;;;;;;;;;30.60;47.10;;;;;;4932675;28;102269;-70
2022/07/03 11:40:52;;;;;;;2.92;2.08;;;30.50;47.80;;;;;;4935594;28;99187;-70
2022/07/03 11:43:19;;;;;;;2.60;1.48;;;30.60;48.90;;;;;;4933712;28;98430;-70
2022/07/03 11:45:47;;;;;;;1.35;0.85;;;30.70;47.80;;;;;;4931981;28;102709;-70
2022/07/03 11:48:23;;;;;;;2.17;1.67;;;30.90;47.80;;;;;;4931993;28;102460;-70
2022/07/03 11:50:50;;;;;;;1.95;1.75;;;31.30;47.90;;;;;;4932419;28;98633;-70
2022/07/03 11:53:22;;;;;;;1.98;1.17;;;31.50;47.20;;;;;;4932675;28;98509;-70
2022/07/03 11:56:01;;;;;;;2.30;2.10;;;31.70;46.70;;;;;;4932574;28;99238;-71
2022/07/03 11:58:43;;;;;;;1.35;0.95;;;32.00;45.90;;;;;;4945387;28;99230;-70
2022/07/03 12:01:25;;;;;;;2.72;2.53;;;32.10;44.50;;;;;;4953126;28;98496;-70
2022/07/03 12:04:01;;;;;;;1.02;1.00;;;32.20;45.00;;;;;;4953488;28;97823;-71
2022/07/03 12:06:37;;;;;;;1.55;1.35;;;32.20;45.30;;;;;;4935462;28;99470;-70
2022/07/03 12:09:29;;;;;;;2.85;2.05;;;32.50;45.10;;;;;;4935125;28;98956;-70
2022/07/03 12:11:57;;;;;;;3.00;1.53;;;32.50;43.40;;;;;;4935671;28;99526;-70
2022/07/03 12:14:47;;;;;;;1.55;1.38;;;32.40;44.40;;;;;;4935430;28;98567;-71
2022/07/03 12:17:22;;;;;;;0.80;0.80;;;32.50;44.80;;;;;;4952704;28;99290;-71
2022/07/03 12:20:00;;;;;;;1.25;1.15;;;32.50;44.90;;;;;;4952744;28;98982;-71
2022/07/03 12:22:29;;;;;;;1.15;0.90;;;32.70;43.90;;;;;;4952800;28;98492;-70
2022/07/03 12:25:01;;;;;;;1.00;0.60;;;32.60;44.10;;;;;;4935234;28;98645;-70
2022/07/03 12:27:33;;;;;;;1.33;0.93;;;32.50;43.80;;;;;;4952282;28;99395;-70
2022/07/03 12:30:01;;;;;;;;;;;32.20;44.60;;;;;;4919539;28;101505;-70
2022/07/03 12:32:28;;;;;;;2.50;1.67;;;31.90;45.20;;;;;;4936217;28;98734;-70
2022/07/03 12:34:56;;;;;;;1.45;1.35;;;31.80;45.30;;;;;;4935239;28;98559;-70
2022/07/03 12:37:40;;;;;;;6.28;5.78;;;31.80;44.80;;;;;;4934366;28;100013;-70
2022/07/03 12:40:09;;;;;;;7.07;6.38;;;31.80;44.40;;;;;;4952308;28;99690;-71
2022/07/03 12:42:54;;;;;;;1.73;1.63;;;31.70;44.70;;;;;;4952406;28;98417;-71
2022/07/03 12:45:28;;;;;;;4.72;4.35;;;31.70;45.10;;;;;;4952847;28;98519;-70
2022/07/03 12:48:05;;;;;;;1.35;0.85;;;31.50;44.80;;;;;;4935070;28;99361;-70
2022/07/03 12:50:54;;;;;;;2.13;2.03;;;31.50;45.20;;;;;;4934757;28;99010;-70
2022/07/03 12:53:33;;;;;;;4.88;4.38;;;31.50;45.50;;;;;;4934915;28;98589;-70
2022/07/03 12:56:02;;;;;;;2.80;2.60;;;31.30;45.60;;;;;;4963949;28;97843;-70
2022/07/03 13:01:27;;;;;;;1.90;0.90;;;30.70;46.10;;;;;;4952336;28;99520;-70
2022/07/03 13:03:55;;;;;;;2.80;1.00;;;30.70;47.30;;;;;;4952314;28;99281;-70
2022/07/03 13:06:23;;;;;;;3.15;2.15;;;30.70;47.10;;;;;;4952228;28;98834;-70
2022/07/03 13:08:54;;;;;;;1.50;0.90;;;30.80;46.70;;;;;;4951718;28;99328;-70
2022/07/03 13:11:38;;;;;;;2.70;1.40;;;30.70;46.00;;;;;;4935758;28;99082;-71
2022/07/03 13:14:16;;;;;;;4.97;2.40;;;30.70;46.60;;;;;;4955965;28;98477;-70
2022/07/03 13:16:45;;;;;;;5.28;2.08;;;30.70;48.30;;;;;;4955331;28;98533;-70
2022/07/03 13:19:17;;;;;;;2.88;2.65;;;30.80;49.00;;;;;;4954995;28;99354;-70